Blandinsville, Illinois
Current Conditions -  °F | °C
As of 11:35 PM on Saturday 22 Nov 2014 (Local Time) from KMQB Reporting Station
Overcast Overcast  
Wind Chill: 53°   Ceiling: 1100
Heat Index: 53°   Visibility: 10mi
Dew Point: 49°   Wind: 12mph
Humidity: 88%   Direction: 190°S
Pressure: 29.81"   Gusts: NA
Location:  40.56°N, 90.87°W
Report Text: KMQB 230535Z AUTO 19010KT 10SM OVC011 12/10 A2981 RMK AO2 T01150096
Loading
Personal Weather Stations






























Interactive Weather Map New forecast layout! Learn more

10-Day Weather Forecast

Advertisements
Track Severe Weather on mobile